sensor_id;sensor_type;location;lat;lon;timestamp;pressure;altitude;pressure_sealevel;temperature;humidity
77975;BME280;67164;51.202;0.278;2023-03-13T00:00:20;99472.60;;;16.72;46.37
77975;BME280;67164;51.202;0.278;2023-03-13T00:02:46;99467.10;;;16.57;46.63
77975;BME280;67164;51.202;0.278;2023-03-13T00:05:12;99457.58;;;16.78;46.32
77975;BME280;67164;51.202;0.278;2023-03-13T00:07:38;99462.64;;;17.05;46.00
77975;BME280;67164;51.202;0.278;2023-03-13T00:10:04;99446.39;;;17.11;45.71
77975;BME280;67164;51.202;0.278;2023-03-13T00:12:29;99434.79;;;17.19;45.20
77975;BME280;67164;51.202;0.278;2023-03-13T00:14:55;99431.57;;;17.69;44.62
77975;BME280;67164;51.202;0.278;2023-03-13T00:17:21;99442.17;;;17.34;44.60
77975;BME280;67164;51.202;0.278;2023-03-13T00:19:46;99436.98;;;17.54;44.25
77975;BME280;67164;51.202;0.278;2023-03-13T00:22:12;99424.09;;;17.58;44.09
77975;BME280;67164;51.202;0.278;2023-03-13T00:24:38;99423.85;;;17.87;43.92
77975;BME280;67164;51.202;0.278;2023-03-13T00:27:04;99421.95;;;17.67;43.83
77975;BME280;67164;51.202;0.278;2023-03-13T00:29:31;99400.92;;;17.76;43.69
77975;BME280;67164;51.202;0.278;2023-03-13T00:31:56;99400.21;;;18.05;43.56
77975;BME280;67164;51.202;0.278;2023-03-13T00:34:21;99409.88;;;17.56;43.48
77975;BME280;67164;51.202;0.278;2023-03-13T00:36:47;99404.69;;;17.75;43.46
77975;BME280;67164;51.202;0.278;2023-03-13T00:39:13;99406.75;;;17.57;43.35
77975;BME280;67164;51.202;0.278;2023-03-13T00:41:39;99410.59;;;18.03;43.29
77975;BME280;67164;51.202;0.278;2023-03-13T00:44:05;99403.85;;;17.71;43.45
77975;BME280;67164;51.202;0.278;2023-03-13T00:46:30;99397.16;;;17.90;43.42
77975;BME280;67164;51.202;0.278;2023-03-13T00:48:57;99405.11;;;17.65;43.34
77975;BME280;67164;51.202;0.278;2023-03-13T00:51:23;99391.65;;;17.65;43.22
77975;BME280;67164;51.202;0.278;2023-03-13T00:53:48;99390.65;;;17.64;43.33
77975;BME280;67164;51.202;0.278;2023-03-13T00:56:15;99368.47;;;17.77;43.08
77975;BME280;67164;51.202;0.278;2023-03-13T00:58:41;99376.20;;;17.80;43.14
77975;BME280;67164;51.202;0.278;2023-03-13T01:01:07;99380.40;;;18.05;42.94
77975;BME280;67164;51.202;0.278;2023-03-13T01:03:31;99366.62;;;18.03;43.09
77975;BME280;67164;51.202;0.278;2023-03-13T01:05:58;99371.83;;;17.88;43.18
77975;BME280;67164;51.202;0.278;2023-03-13T01:08:25;99378.34;;;17.95;43.13
77975;BME280;67164;51.202;0.278;2023-03-13T01:10:49;99386.08;;;17.74;43.09
77975;BME280;67164;51.202;0.278;2023-03-13T01:13:15;99364.83;;;17.75;43.06
77975;BME280;67164;51.202;0.278;2023-03-13T01:15:40;99374.60;;;17.96;42.99
77975;BME280;67164;51.202;0.278;2023-03-13T01:18:07;99359.12;;;17.74;42.96
77975;BME280;67164;51.202;0.278;2023-03-13T01:20:31;99355.38;;;17.80;42.87
77975;BME280;67164;51.202;0.278;2023-03-13T01:22:57;99350.10;;;17.83;42.76
77975;BME280;67164;51.202;0.278;2023-03-13T01:25:23;99355.78;;;17.86;42.76
77975;BME280;67164;51.202;0.278;2023-03-13T01:27:49;99348.86;;;17.84;42.64
77975;BME280;67164;51.202;0.278;2023-03-13T01:30:15;99350.51;;;17.84;42.62
77975;BME280;67164;51.202;0.278;2023-03-13T01:32:40;99363.45;;;17.84;42.59
77975;BME280;67164;51.202;0.278;2023-03-13T01:35:07;99368.67;;;18.07;42.75
77975;BME280;67164;51.202;0.278;2023-03-13T01:37:33;99365.83;;;17.62;42.56
77975;BME280;67164;51.202;0.278;2023-03-13T01:39:58;99357.23;;;17.82;42.61
77975;BME280;67164;51.202;0.278;2023-03-13T01:42:24;99356.89;;;18.17;42.73
77975;BME280;67164;51.202;0.278;2023-03-13T01:44:51;99358.21;;;17.92;42.80
77975;BME280;67164;51.202;0.278;2023-03-13T01:47:15;99348.67;;;17.92;42.75
77975;BME280;67164;51.202;0.278;2023-03-13T01:49:41;99338.43;;;17.88;42.83
77975;BME280;67164;51.202;0.278;2023-03-13T01:52:11;99336.92;;;17.91;42.74
77975;BME280;67164;51.202;0.278;2023-03-13T01:54:36;99329.96;;;17.86;42.90
77975;BME280;67164;51.202;0.278;2023-03-13T01:57:01;99327.16;;;17.88;42.90
77975;BME280;67164;51.202;0.278;2023-03-13T01:59:26;99322.11;;;17.68;42.75
77975;BME280;67164;51.202;0.278;2023-03-13T02:01:52;99316.45;;;17.92;42.76
77975;BME280;67164;51.202;0.278;2023-03-13T02:04:18;99302.89;;;17.68;42.72
77975;BME280;67164;51.202;0.278;2023-03-13T02:06:43;99299.13;;;17.92;42.66
77975;BME280;67164;51.202;0.278;2023-03-13T02:09:11;99302.50;;;18.18;42.68
77975;BME280;67164;51.202;0.278;2023-03-13T02:11:43;99277.90;;;17.94;42.53
77975;BME280;67164;51.202;0.278;2023-03-13T02:13:59;99295.18;;;18.16;42.48
77975;BME280;67164;51.202;0.278;2023-03-13T02:16:25;99310.60;;;17.70;42.58
77975;BME280;67164;51.202;0.278;2023-03-13T02:18:51;99314.17;;;17.92;42.65
77975;BME280;67164;51.202;0.278;2023-03-13T02:21:26;99312.67;;;17.65;42.69
77975;BME280;67164;51.202;0.278;2023-03-13T02:23:49;99317.16;;;17.85;42.80
77975;BME280;67164;51.202;0.278;2023-03-13T02:26:08;99316.00;;;18.08;42.66
77975;BME280;67164;51.202;0.278;2023-03-13T02:28:35;99310.65;;;17.88;42.66
77975;BME280;67164;51.202;0.278;2023-03-13T02:31:00;99308.29;;;17.88;42.67
77975;BME280;67164;51.202;0.278;2023-03-13T02:33:28;99287.04;;;17.65;42.68
77975;BME280;67164;51.202;0.278;2023-03-13T02:35:52;99284.89;;;17.91;42.66
77975;BME280;67164;51.202;0.278;2023-03-13T02:38:22;99264.64;;;17.63;42.58
77975;BME280;67164;51.202;0.278;2023-03-13T02:40:45;99274.51;;;17.86;42.56
77975;BME280;67164;51.202;0.278;2023-03-13T02:43:12;99242.79;;;17.57;42.71
77975;BME280;67164;51.202;0.278;2023-03-13T02:45:35;99248.13;;;17.82;42.64
77975;BME280;67164;51.202;0.278;2023-03-13T02:48:01;99249.10;;;17.79;42.68
77975;BME280;67164;51.202;0.278;2023-03-13T02:50:27;99236.32;;;17.53;42.80
77975;BME280;67164;51.202;0.278;2023-03-13T02:52:55;99245.40;;;17.49;42.84
77975;BME280;67164;51.202;0.278;2023-03-13T02:55:22;99221.08;;;17.73;42.74
77975;BME280;67164;51.202;0.278;2023-03-13T02:57:44;99227.05;;;17.74;42.67
77975;BME280;67164;51.202;0.278;2023-03-13T03:00:12;99222.46;;;17.79;42.69
77975;BME280;67164;51.202;0.278;2023-03-13T03:02:36;99214.54;;;17.74;42.91
77975;BME280;67164;51.202;0.278;2023-03-13T03:05:02;99205.04;;;17.52;42.66
77975;BME280;67164;51.202;0.278;2023-03-13T03:07:28;99211.38;;;17.80;42.76
77975;BME280;67164;51.202;0.278;2023-03-13T03:09:54;99213.46;;;17.58;42.71
77975;BME280;67164;51.202;0.278;2023-03-13T03:12:20;99216.25;;;17.81;42.79
77975;BME280;67164;51.202;0.278;2023-03-13T03:14:45;99200.83;;;17.78;42.82
77975;BME280;67164;51.202;0.278;2023-03-13T03:17:12;99202.95;;;17.77;42.63
77975;BME280;67164;51.202;0.278;2023-03-13T03:19:37;99185.93;;;17.73;42.85
77975;BME280;67164;51.202;0.278;2023-03-13T03:22:03;99198.36;;;17.74;42.87
77975;BME280;67164;51.202;0.278;2023-03-13T03:24:29;99197.95;;;17.49;42.87
77975;BME280;67164;51.202;0.278;2023-03-13T03:26:55;99192.76;;;17.59;42.73
77975;BME280;67164;51.202;0.278;2023-03-13T03:29:20;99185.38;;;17.86;42.51
77975;BME280;67164;51.202;0.278;2023-03-13T03:31:46;99183.64;;;17.62;42.67
77975;BME280;67164;51.202;0.278;2023-03-13T03:34:12;99190.30;;;17.62;42.55
77975;BME280;67164;51.202;0.278;2023-03-13T03:36:38;99184.36;;;17.58;42.79
77975;BME280;67164;51.202;0.278;2023-03-13T03:39:04;99184.50;;;17.81;42.70
77975;BME280;67164;51.202;0.278;2023-03-13T03:41:30;99172.43;;;17.84;42.69
77975;BME280;67164;51.202;0.278;2023-03-13T03:43:56;99188.10;;;17.67;42.63
77975;BME280;67164;51.202;0.278;2023-03-13T03:46:22;99179.47;;;17.66;42.64
77975;BME280;67164;51.202;0.278;2023-03-13T03:48:47;99178.99;;;17.72;42.58
77975;BME280;67164;51.202;0.278;2023-03-13T03:51:13;99172.22;;;17.40;42.53
77975;BME280;67164;51.202;0.278;2023-03-13T03:53:39;99172.63;;;17.61;42.52
77975;BME280;67164;51.202;0.278;2023-03-13T03:56:06;99176.18;;;17.60;42.58
77975;BME280;67164;51.202;0.278;2023-03-13T03:58:31;99177.87;;;17.61;42.69
77975;BME280;67164;51.202;0.278;2023-03-13T04:00:57;99178.20;;;17.65;42.55
77975;BME280;67164;51.202;0.278;2023-03-13T04:03:23;99176.64;;;17.67;42.60
77975;BME280;67164;51.202;0.278;2023-03-13T04:05:48;99170.80;;;17.78;43.03
77975;BME280;67164;51.202;0.278;2023-03-13T04:08:15;99171.41;;;17.67;42.65
77975;BME280;67164;51.202;0.278;2023-03-13T04:10:40;99168.46;;;17.62;42.49
77975;BME280;67164;51.202;0.278;2023-03-13T04:13:11;99181.69;;;17.80;42.74
77975;BME280;67164;51.202;0.278;2023-03-13T04:15:32;99193.88;;;17.71;42.81
77975;BME280;67164;51.202;0.278;2023-03-13T04:17:58;99173.51;;;17.70;42.84
77975;BME280;67164;51.202;0.278;2023-03-13T04:20:23;99173.94;;;17.74;42.84
77975;BME280;67164;51.202;0.278;2023-03-13T04:22:49;99180.45;;;17.80;42.74
77975;BME280;67164;51.202;0.278;2023-03-13T04:25:15;99169.38;;;17.56;42.71
77975;BME280;67164;51.202;0.278;2023-03-13T04:27:41;99184.31;;;17.74;42.86
77975;BME280;67164;51.202;0.278;2023-03-13T04:30:08;99181.71;;;17.50;42.89
77975;BME280;67164;51.202;0.278;2023-03-13T04:32:33;99172.59;;;17.74;42.88
77975;BME280;67164;51.202;0.278;2023-03-13T04:34:59;99171.33;;;17.72;42.87
77975;BME280;67164;51.202;0.278;2023-03-13T04:37:24;99173.87;;;17.93;42.86
77975;BME280;67164;51.202;0.278;2023-03-13T04:39:50;99175.19;;;17.65;42.91
77975;BME280;67164;51.202;0.278;2023-03-13T04:42:16;99173.65;;;17.67;42.87
77975;BME280;67164;51.202;0.278;2023-03-13T04:44:42;99180.38;;;17.59;43.16
77975;BME280;67164;51.202;0.278;2023-03-13T04:47:08;99174.55;;;17.83;42.93
77975;BME280;67164;51.202;0.278;2023-03-13T04:49:33;99160.38;;;17.77;43.14
77975;BME280;67164;51.202;0.278;2023-03-13T04:51:59;99154.47;;;17.54;43.15
77975;BME280;67164;51.202;0.278;2023-03-13T04:54:25;99160.17;;;17.54;43.14
77975;BME280;67164;51.202;0.278;2023-03-13T04:56:51;99143.12;;;17.77;43.07
77975;BME280;67164;51.202;0.278;2023-03-13T04:59:17;99144.88;;;17.34;43.18
77975;BME280;67164;51.202;0.278;2023-03-13T05:01:53;99143.74;;;17.46;42.95
77975;BME280;67164;51.202;0.278;2023-03-13T05:04:09;99155.57;;;17.52;42.91
77975;BME280;67164;51.202;0.278;2023-03-13T05:06:35;99145.88;;;17.82;42.80
77975;BME280;67164;51.202;0.278;2023-03-13T05:09:00;99151.28;;;18.02;42.84
77975;BME280;67164;51.202;0.278;2023-03-13T05:11:26;99162.91;;;17.70;42.81
77975;BME280;67164;51.202;0.278;2023-03-13T05:13:52;99158.97;;;17.86;43.14
77975;BME280;67164;51.202;0.278;2023-03-13T05:16:18;99147.38;;;17.38;42.92
77975;BME280;67164;51.202;0.278;2023-03-13T05:18:44;99141.61;;;17.37;43.04
77975;BME280;67164;51.202;0.278;2023-03-13T05:21:10;99150.08;;;17.82;43.17
77975;BME280;67164;51.202;0.278;2023-03-13T05:23:35;99147.93;;;17.62;42.88
77975;BME280;67164;51.202;0.278;2023-03-13T05:26:02;99137.95;;;17.62;42.99
77975;BME280;67164;51.202;0.278;2023-03-13T05:28:27;99142.35;;;17.88;42.92
77975;BME280;67164;51.202;0.278;2023-03-13T05:30:53;99151.93;;;17.88;43.04
77975;BME280;67164;51.202;0.278;2023-03-13T05:33:24;99142.52;;;17.67;42.84
77975;BME280;67164;51.202;0.278;2023-03-13T05:35:45;99146.00;;;17.69;42.95
77975;BME280;67164;51.202;0.278;2023-03-13T05:38:12;99141.36;;;17.69;42.93
77975;BME280;67164;51.202;0.278;2023-03-13T05:40:36;99132.03;;;17.97;42.83
77975;BME280;67164;51.202;0.278;2023-03-13T05:43:02;99137.98;;;17.72;42.89
77975;BME280;67164;51.202;0.278;2023-03-13T05:45:28;99141.45;;;17.72;42.91
77975;BME280;67164;51.202;0.278;2023-03-13T05:47:54;99129.74;;;17.72;43.04
77975;BME280;67164;51.202;0.278;2023-03-13T05:50:19;99135.76;;;17.77;42.87
77975;BME280;67164;51.202;0.278;2023-03-13T05:52:45;99134.51;;;17.81;42.92
77975;BME280;67164;51.202;0.278;2023-03-13T05:55:12;99133.72;;;17.79;42.97
77975;BME280;67164;51.202;0.278;2023-03-13T05:57:37;99136.03;;;17.76;42.90
77975;BME280;67164;51.202;0.278;2023-03-13T06:00:04;99130.69;;;17.72;42.84
77975;BME280;67164;51.202;0.278;2023-03-13T06:02:29;99147.37;;;17.70;42.81
77975;BME280;67164;51.202;0.278;2023-03-13T06:04:54;99129.22;;;17.90;43.05
77975;BME280;67164;51.202;0.278;2023-03-13T06:07:20;99132.91;;;17.47;42.94
77975;BME280;67164;51.202;0.278;2023-03-13T06:09:46;99137.65;;;17.70;42.84
77975;BME280;67164;51.202;0.278;2023-03-13T06:12:12;99140.99;;;17.79;42.74
77975;BME280;67164;51.202;0.278;2023-03-13T06:14:38;99140.93;;;17.81;42.84
77975;BME280;67164;51.202;0.278;2023-03-13T06:17:04;99145.54;;;17.58;42.74
77975;BME280;67164;51.202;0.278;2023-03-13T06:19:29;99125.94;;;17.80;42.77
77975;BME280;67164;51.202;0.278;2023-03-13T06:21:55;99134.57;;;17.79;42.82
77975;BME280;67164;51.202;0.278;2023-03-13T06:24:21;99132.51;;;17.53;42.73
77975;BME280;67164;51.202;0.278;2023-03-13T06:26:47;99121.03;;;18.07;42.74
77975;BME280;67164;51.202;0.278;2023-03-13T06:29:12;99113.70;;;17.60;42.76
77975;BME280;67164;51.202;0.278;2023-03-13T06:31:38;99112.06;;;17.78;42.86
77975;BME280;67164;51.202;0.278;2023-03-13T06:34:04;99115.34;;;17.78;42.95
77975;BME280;67164;51.202;0.278;2023-03-13T06:36:30;99121.51;;;17.54;42.91
77975;BME280;67164;51.202;0.278;2023-03-13T06:38:56;99118.03;;;18.01;42.74
77975;BME280;67164;51.202;0.278;2023-03-13T06:41:21;99119.14;;;17.74;42.78
77975;BME280;67164;51.202;0.278;2023-03-13T06:43:47;99117.34;;;17.50;42.90
77975;BME280;67164;51.202;0.278;2023-03-13T06:46:17;99109.78;;;17.52;42.74
77975;BME280;67164;51.202;0.278;2023-03-13T06:48:38;99131.01;;;17.79;42.83
77975;BME280;67164;51.202;0.278;2023-03-13T06:51:04;99113.95;;;17.53;42.82
77975;BME280;67164;51.202;0.278;2023-03-13T06:53:30;99126.50;;;17.78;42.74
77975;BME280;67164;51.202;0.278;2023-03-13T06:55:59;99123.78;;;17.72;42.65
77975;BME280;67164;51.202;0.278;2023-03-13T06:58:22;99112.72;;;17.69;42.89
77975;BME280;67164;51.202;0.278;2023-03-13T07:00:47;99114.56;;;17.65;42.98
77975;BME280;67164;51.202;0.278;2023-03-13T07:03:13;99120.12;;;17.64;42.87
77975;BME280;67164;51.202;0.278;2023-03-13T07:05:39;99103.49;;;17.63;42.84
77975;BME280;67164;51.202;0.278;2023-03-13T07:08:05;99099.88;;;17.79;43.02
77975;BME280;67164;51.202;0.278;2023-03-13T07:10:31;99097.65;;;17.83;43.04
77975;BME280;67164;51.202;0.278;2023-03-13T07:12:57;99100.89;;;17.57;42.96
77975;BME280;67164;51.202;0.278;2023-03-13T07:15:22;99095.49;;;17.54;42.96
77975;BME280;67164;51.202;0.278;2023-03-13T07:17:48;99107.28;;;17.75;43.18
77975;BME280;67164;51.202;0.278;2023-03-13T07:20:14;99104.06;;;17.75;43.05
77975;BME280;67164;51.202;0.278;2023-03-13T07:22:40;99083.85;;;17.69;43.13
77975;BME280;67164;51.202;0.278;2023-03-13T07:25:08;99085.36;;;17.52;43.06
77975;BME280;67164;51.202;0.278;2023-03-13T07:27:37;99084.95;;;17.72;43.08
77975;BME280;67164;51.202;0.278;2023-03-13T07:29:57;99093.37;;;17.53;43.04
77975;BME280;67164;51.202;0.278;2023-03-13T07:32:23;99086.58;;;17.89;42.80
77975;BME280;67164;51.202;0.278;2023-03-13T07:34:49;99082.45;;;17.69;42.80
77975;BME280;67164;51.202;0.278;2023-03-13T07:37:15;99091.61;;;17.50;42.80
77975;BME280;67164;51.202;0.278;2023-03-13T07:39:41;99100.56;;;17.47;42.77
77975;BME280;67164;51.202;0.278;2023-03-13T07:42:05;99104.29;;;17.47;43.12
77975;BME280;67164;51.202;0.278;2023-03-13T07:44:30;99110.35;;;17.79;43.24
77975;BME280;67164;51.202;0.278;2023-03-13T07:46:58;99093.10;;;17.50;43.39
77975;BME280;67164;51.202;0.278;2023-03-13T07:49:21;99111.31;;;16.87;44.23
77975;BME280;67164;51.202;0.278;2023-03-13T07:51:47;99101.51;;;16.74;44.99
77975;BME280;67164;51.202;0.278;2023-03-13T07:54:13;99085.00;;;16.35;45.99
77975;BME280;67164;51.202;0.278;2023-03-13T07:56:39;99085.55;;;16.48;46.04
77975;BME280;67164;51.202;0.278;2023-03-13T07:59:04;99088.26;;;16.33;46.28
77975;BME280;67164;51.202;0.278;2023-03-13T08:01:29;99074.04;;;16.52;46.12
77975;BME280;67164;51.202;0.278;2023-03-13T08:03:55;99071.45;;;16.55;46.53
77975;BME280;67164;51.202;0.278;2023-03-13T08:06:22;99068.90;;;16.54;46.59
77975;BME280;67164;51.202;0.278;2023-03-13T08:08:47;99062.19;;;16.41;46.86
77975;BME280;67164;51.202;0.278;2023-03-13T08:11:14;99080.70;;;16.59;46.83
77975;BME280;67164;51.202;0.278;2023-03-13T08:13:39;99061.40;;;16.49;47.67
77975;BME280;67164;51.202;0.278;2023-03-13T08:16:06;99051.28;;;16.29;47.67
77975;BME280;67164;51.202;0.278;2023-03-13T08:18:30;99051.77;;;16.22;47.88
77975;BME280;67164;51.202;0.278;2023-03-13T08:20:55;99047.36;;;16.48;47.55
77975;BME280;67164;51.202;0.278;2023-03-13T08:23:21;99051.11;;;16.33;47.95
77975;BME280;67164;51.202;0.278;2023-03-13T08:25:47;99049.28;;;16.43;47.93
77975;BME280;67164;51.202;0.278;2023-03-13T08:28:13;99042.00;;;16.09;47.85
77975;BME280;67164;51.202;0.278;2023-03-13T08:30:38;99039.73;;;16.44;48.44
77975;BME280;67164;51.202;0.278;2023-03-13T08:33:04;99038.11;;;16.56;48.45
77975;BME280;67164;51.202;0.278;2023-03-13T08:35:30;99043.88;;;16.74;48.39
77975;BME280;67164;51.202;0.278;2023-03-13T08:37:56;99044.97;;;16.95;48.18
77975;BME280;67164;51.202;0.278;2023-03-13T08:40:23;99046.56;;;16.87;48.35
77975;BME280;67164;51.202;0.278;2023-03-13T08:42:48;99046.75;;;16.92;48.84
77975;BME280;67164;51.202;0.278;2023-03-13T08:45:13;99032.55;;;16.42;48.94
77975;BME280;67164;51.202;0.278;2023-03-13T08:47:38;99031.42;;;16.08;50.46
77975;BME280;67164;51.202;0.278;2023-03-13T08:50:05;99024.03;;;16.18;50.52
77975;BME280;67164;51.202;0.278;2023-03-13T08:52:31;99019.46;;;15.99;50.62
77975;BME280;67164;51.202;0.278;2023-03-13T08:54:56;99027.25;;;16.16;50.93
77975;BME280;67164;51.202;0.278;2023-03-13T08:57:22;99025.82;;;16.05;50.82
77975;BME280;67164;51.202;0.278;2023-03-13T08:59:47;99023.54;;;16.17;50.77
77975;BME280;67164;51.202;0.278;2023-03-13T09:02:13;99015.65;;;16.04;50.97
77975;BME280;67164;51.202;0.278;2023-03-13T09:04:39;99013.35;;;16.51;51.13
77975;BME280;67164;51.202;0.278;2023-03-13T09:07:05;99022.55;;;16.40;50.96
77975;BME280;67164;51.202;0.278;2023-03-13T09:09:30;99015.33;;;16.56;50.39
77975;BME280;67164;51.202;0.278;2023-03-13T09:11:56;99027.92;;;16.75;50.18
77975;BME280;67164;51.202;0.278;2023-03-13T09:14:22;99008.41;;;16.76;49.83
77975;BME280;67164;51.202;0.278;2023-03-13T09:16:48;99009.62;;;16.88;50.18
77975;BME280;67164;51.202;0.278;2023-03-13T09:19:14;99014.80;;;16.42;50.66
77975;BME280;67164;51.202;0.278;2023-03-13T09:21:40;99008.54;;;16.80;50.12
77975;BME280;67164;51.202;0.278;2023-03-13T09:24:08;99020.98;;;16.73;50.01
77975;BME280;67164;51.202;0.278;2023-03-13T09:26:31;99013.90;;;16.64;49.70
77975;BME280;67164;51.202;0.278;2023-03-13T09:28:57;99022.38;;;16.39;49.27
77975;BME280;67164;51.202;0.278;2023-03-13T09:31:25;99017.25;;;16.14;49.36
77975;BME280;67164;51.202;0.278;2023-03-13T09:33:49;99017.55;;;16.01;49.44
77975;BME280;67164;51.202;0.278;2023-03-13T09:36:15;99013.63;;;15.99;49.32
77975;BME280;67164;51.202;0.278;2023-03-13T09:38:40;99016.84;;;16.55;49.12
77975;BME280;67164;51.202;0.278;2023-03-13T09:41:21;99035.51;;;16.29;49.33
77975;BME280;67164;51.202;0.278;2023-03-13T09:43:39;99011.22;;;16.52;49.25
77975;BME280;67164;51.202;0.278;2023-03-13T09:46:02;99017.18;;;16.37;49.45
77975;BME280;67164;51.202;0.278;2023-03-13T09:48:28;99025.32;;;16.55;48.83
77975;BME280;67164;51.202;0.278;2023-03-13T09:50:58;99030.82;;;16.68;49.29
77975;BME280;67164;51.202;0.278;2023-03-13T09:53:26;99031.66;;;16.25;49.53
77975;BME280;67164;51.202;0.278;2023-03-13T09:55:42;99024.18;;;16.54;49.58
77975;BME280;67164;51.202;0.278;2023-03-13T09:58:10;99021.48;;;16.54;50.04
77975;BME280;67164;51.202;0.278;2023-03-13T10:00:35;99013.30;;;16.65;50.27
77975;BME280;67164;51.202;0.278;2023-03-13T10:03:01;99005.76;;;16.43;50.57
77975;BME280;67164;51.202;0.278;2023-03-13T10:05:24;99022.12;;;16.60;50.42
77975;BME280;67164;51.202;0.278;2023-03-13T10:07:48;99014.84;;;16.88;50.15
77975;BME280;67164;51.202;0.278;2023-03-13T10:10:15;99011.57;;;16.51;49.79
77975;BME280;67164;51.202;0.278;2023-03-13T10:12:43;99012.43;;;16.57;49.96
77975;BME280;67164;51.202;0.278;2023-03-13T10:15:30;99030.92;;;16.49;50.20
77975;BME280;67164;51.202;0.278;2023-03-13T10:17:33;98994.94;;;16.90;50.04
77975;BME280;67164;51.202;0.278;2023-03-13T10:20:00;99004.17;;;16.96;49.74
77975;BME280;67164;51.202;0.278;2023-03-13T10:22:24;99008.45;;;16.66;50.01
77975;BME280;67164;51.202;0.278;2023-03-13T10:24:50;99003.00;;;16.86;50.02
77975;BME280;67164;51.202;0.278;2023-03-13T10:27:14;99006.83;;;16.45;49.95
77975;BME280;67164;51.202;0.278;2023-03-13T10:29:39;99003.15;;;16.87;50.09
77975;BME280;67164;51.202;0.278;2023-03-13T10:32:07;99002.97;;;16.73;49.87
77975;BME280;67164;51.202;0.278;2023-03-13T10:36:58;99003.50;;;16.72;49.72
77975;BME280;67164;51.202;0.278;2023-03-13T10:39:24;98991.54;;;16.74;49.62
77975;BME280;67164;51.202;0.278;2023-03-13T10:41:48;98994.07;;;16.85;49.42
77975;BME280;67164;51.202;0.278;2023-03-13T10:44:16;98993.63;;;16.89;49.40
77975;BME280;67164;51.202;0.278;2023-03-13T10:46:40;98992.94;;;17.12;49.48
77975;BME280;67164;51.202;0.278;2023-03-13T10:49:12;98976.16;;;17.06;49.69
77975;BME280;67164;51.202;0.278;2023-03-13T10:51:35;98986.38;;;17.05;49.79
77975;BME280;67164;51.202;0.278;2023-03-13T10:53:56;98989.78;;;17.02;49.89
77975;BME280;67164;51.202;0.278;2023-03-13T10:56:27;98980.97;;;17.42;49.49
77975;BME280;67164;51.202;0.278;2023-03-13T10:58:49;98973.67;;;17.19;49.89
77975;BME280;67164;51.202;0.278;2023-03-13T11:01:17;98967.12;;;17.00;49.82
77975;BME280;67164;51.202;0.278;2023-03-13T11:03:39;98982.55;;;17.62;49.34
77975;BME280;67164;51.202;0.278;2023-03-13T11:08:34;98968.28;;;17.26;49.27
77975;BME280;67164;51.202;0.278;2023-03-13T11:10:59;98989.41;;;16.98;49.53
77975;BME280;67164;51.202;0.278;2023-03-13T11:13:31;98988.97;;;16.96;49.59
77975;BME280;67164;51.202;0.278;2023-03-13T11:15:54;98987.36;;;16.99;49.63
77975;BME280;67164;51.202;0.278;2023-03-13T11:18:19;98986.88;;;17.06;49.29
77975;BME280;67164;51.202;0.278;2023-03-13T11:20:41;98985.42;;;17.35;48.72
77975;BME280;67164;51.202;0.278;2023-03-13T11:23:15;98985.41;;;17.37;48.81
77975;BME280;67164;51.202;0.278;2023-03-13T11:25:34;98997.95;;;17.33;48.59
77975;BME280;67164;51.202;0.278;2023-03-13T11:28:07;98994.35;;;17.47;48.79
77975;BME280;67164;51.202;0.278;2023-03-13T11:30:35;98981.96;;;17.47;49.61
77975;BME280;67164;51.202;0.278;2023-03-13T11:32:53;98981.77;;;17.60;49.64
77975;BME280;67164;51.202;0.278;2023-03-13T11:35:21;98984.73;;;17.52;48.91
77975;BME280;67164;51.202;0.278;2023-03-13T11:37:41;98981.61;;;17.91;48.84
77975;BME280;67164;51.202;0.278;2023-03-13T11:40:16;98976.16;;;17.90;48.91
77975;BME280;67164;51.202;0.278;2023-03-13T11:42:42;98974.33;;;17.88;47.57
77975;BME280;67164;51.202;0.278;2023-03-13T11:45:01;98979.36;;;17.90;47.34
77975;BME280;67164;51.202;0.278;2023-03-13T11:47:32;98977.44;;;17.93;47.02
77975;BME280;67164;51.202;0.278;2023-03-13T11:49:58;98969.02;;;17.72;47.02
77975;BME280;67164;51.202;0.278;2023-03-13T11:52:23;98977.02;;;17.73;47.09
77975;BME280;67164;51.202;0.278;2023-03-13T11:54:57;98964.68;;;17.75;46.94
77975;BME280;67164;51.202;0.278;2023-03-13T11:57:07;98979.83;;;18.03;46.94
77975;BME280;67164;51.202;0.278;2023-03-13T11:59:37;98983.46;;;18.09;46.82
77975;BME280;67164;51.202;0.278;2023-03-13T12:01:59;98977.36;;;18.30;46.93
77975;BME280;67164;51.202;0.278;2023-03-13T12:04:24;98972.38;;;18.12;47.33
77975;BME280;67164;51.202;0.278;2023-03-13T12:06:50;98962.23;;;18.65;47.27
77975;BME280;67164;51.202;0.278;2023-03-13T12:09:15;98968.90;;;18.64;47.55
77975;BME280;67164;51.202;0.278;2023-03-13T12:11:40;98961.96;;;18.62;47.64
77975;BME280;67164;51.202;0.278;2023-03-13T12:14:05;98966.65;;;18.37;47.86
77975;BME280;67164;51.202;0.278;2023-03-13T12:16:37;98962.01;;;18.59;47.58
77975;BME280;67164;51.202;0.278;2023-03-13T12:18:53;98961.16;;;18.57;47.73
77975;BME280;67164;51.202;0.278;2023-03-13T12:21:21;98950.02;;;18.51;47.54
77975;BME280;67164;51.202;0.278;2023-03-13T12:23:49;98962.78;;;18.42;48.11
77975;BME280;67164;51.202;0.278;2023-03-13T12:26:13;98954.87;;;18.45;48.15
77975;BME280;67164;51.202;0.278;2023-03-13T12:28:38;98952.02;;;18.41;48.30
77975;BME280;67164;51.202;0.278;2023-03-13T12:31:06;98964.95;;;18.78;48.16
77975;BME280;67164;51.202;0.278;2023-03-13T12:33:29;98956.31;;;18.73;47.82
77975;BME280;67164;51.202;0.278;2023-03-13T12:35:55;98944.07;;;18.60;48.01
77975;BME280;67164;51.202;0.278;2023-03-13T12:38:22;98966.26;;;18.31;48.49
77975;BME280;67164;51.202;0.278;2023-03-13T12:40:47;98946.37;;;18.77;48.18
77975;BME280;67164;51.202;0.278;2023-03-13T12:43:10;98941.25;;;18.43;47.85
77975;BME280;67164;51.202;0.278;2023-03-13T12:45:35;98951.75;;;18.57;48.01
77975;BME280;67164;51.202;0.278;2023-03-13T12:48:20;98941.61;;;18.55;48.06
77975;BME280;67164;51.202;0.278;2023-03-13T12:50:34;98938.57;;;18.69;47.90
77975;BME280;67164;51.202;0.278;2023-03-13T12:53:15;98939.88;;;18.77;48.08
77975;BME280;67164;51.202;0.278;2023-03-13T12:55:37;98934.05;;;18.76;47.77